Time;durP1;ratioP1;P1;durP2;ratioP2;P2;SDS_P1;SDS_P2;PMS_P1;PMS_P2;Temp;Humidity;BMP_temperature;BMP_pressure;BME280_temperature;BME280_humidity;BME280_pressure;Samples;Min_cycle;Max_cycle;Signal;HPM_P1;HPM_P2
2023/01/24 00:01:02;;;;;;;7.95;3.72;;;6.60;99.90;;;;;;10425225;28;20045;-62
2023/01/24 00:06:23;;;;;;;7.78;3.40;;;6.60;99.90;;;;;;10424193;28;20025;-60
2023/01/24 00:11:43;;;;;;;6.72;3.33;;;6.60;99.90;;;;;;10425127;28;20056;-63
2023/01/24 00:17:02;;;;;;;;;;;6.60;99.90;;;;;;10423594;28;20100;-63
2023/01/24 00:22:23;;;;;;;7.85;3.58;;;6.60;99.90;;;;;;10426929;28;19917;-61
2023/01/24 00:27:43;;;;;;;6.72;3.70;;;6.00;99.90;;;;;;10418051;28;20044;-62
2023/01/24 00:33:03;;;;;;;7.05;3.85;;;6.60;99.90;;;;;;10420810;28;20470;-60
2023/01/24 00:38:22;;;;;;;6.85;3.42;;;7.30;99.90;;;;;;10423060;28;20120;-61
2023/01/24 00:43:42;;;;;;;6.50;3.70;;;6.60;99.90;;;;;;10433744;28;20511;-62
2023/01/24 00:49:02;;;;;;;8.75;3.75;;;6.60;99.90;;;;;;10423252;28;20026;-62
2023/01/24 00:54:22;;;;;;;5.95;3.35;;;6.60;99.90;;;;;;10431344;28;20053;-61
2023/01/24 00:59:42;;;;;;;7.47;3.80;;;6.60;99.90;;;;;;10408291;28;20633;-64
2023/01/24 01:05:01;;;;;;;6.95;3.50;;;6.60;99.90;;;;;;10410350;28;20037;-64
2023/01/24 01:10:20;;;;;;;;;;;6.60;99.90;;;;;;10416302;28;20497;-63
2023/01/24 01:15:39;;;;;;;;;;;7.00;99.90;;;;;;10429875;28;19909;-63
2023/01/24 01:20:59;;;;;;;;;;;6.60;99.90;;;;;;10429537;28;20373;-64
2023/01/24 01:26:23;;;;;;;6.38;3.00;;;7.20;99.90;;;;;;10432321;28;20361;-61
2023/01/24 01:31:44;;;;;;;8.68;3.72;;;6.50;99.90;;;;;;10424249;28;20386;-62
2023/01/24 01:37:07;;;;;;;8.68;3.90;;;6.60;99.90;;;;;;10431421;28;20409;-63
2023/01/24 01:42:46;;;;;;;6.85;3.50;;;6.60;99.90;;;;;;10434126;28;20037;-60
2023/01/24 01:48:18;;;;;;;7.80;4.20;;;6.70;99.90;;;;;;10433721;28;20481;-60
2023/01/24 01:53:56;;;;;;;7.53;3.80;;;6.60;99.90;;;;;;10428744;28;20044;-61
2023/01/24 01:59:22;;;;;;;7.90;3.97;;;6.60;99.90;;;;;;10428230;28;20429;-62
2023/01/24 02:04:46;;;;;;;7.55;3.92;;;6.60;99.90;;;;;;10420171;28;20494;-61
2023/01/24 02:10:06;;;;;;;7.82;3.67;;;6.60;99.90;;;;;;10424780;28;20037;-61
2023/01/24 02:21:08;;;;;;;6.88;3.88;;;6.60;99.90;;;;;;10416422;28;20497;-62
2023/01/24 02:26:28;;;;;;;7.15;3.30;;;6.60;99.90;;;;;;10437782;28;20393;-63
2023/01/24 02:32:01;;;;;;;6.03;3.38;;;6.60;99.90;;;;;;10396821;28;20037;-63
2023/01/24 02:37:20;;;;;;;7.25;3.63;;;6.60;99.90;;;;;;10424156;28;20098;-63
2023/01/24 02:42:40;;;;;;;7.70;3.80;;;6.60;99.90;;;;;;10421256;28;20045;-61
2023/01/24 02:47:59;;;;;;;;;;;7.30;99.90;;;;;;10422184;28;20021;-62
2023/01/24 02:53:30;;;;;;;6.68;3.47;;;6.50;99.90;;;;;;10436984;28;19905;-61
2023/01/24 02:58:49;;;;;;;6.78;3.67;;;7.30;99.90;;;;;;10419678;28;20104;-64
2023/01/24 03:04:10;;;;;;;7.68;3.53;;;6.50;99.90;;;;;;10424162;28;20108;-63
2023/01/24 03:09:35;;;;;;;7.70;3.83;;;6.50;99.90;;;;;;10416841;28;20029;-64
2023/01/24 03:43:06;;;;;;;6.87;3.53;;;6.50;99.90;;;;;;10421145;28;20045;-61
2023/01/24 03:48:33;;;;;;;8.20;3.92;;;6.50;99.90;;;;;;10413621;28;20037;-62
2023/01/24 03:53:53;;;;;;;6.82;3.47;;;6.50;99.90;;;;;;10424796;28;20021;-63
2023/01/24 03:59:12;;;;;;;;;;;7.60;99.90;;;;;;10418110;28;20064;-62
2023/01/24 04:05:12;;;;;;;6.50;3.70;;;6.50;99.90;;;;;;10430683;28;19913;-63
2023/01/24 04:10:10;;;;;;;;;;;6.50;99.90;;;;;;10408422;28;20037;-62
2023/01/24 04:15:31;;;;;;;;;;;6.50;99.90;;;;;;10421824;28;19909;-62
2023/01/24 04:20:50;;;;;;;7.05;2.95;;;6.50;99.90;;;;;;10435546;28;20036;-63
2023/01/24 04:26:10;;;;;;;8.13;3.63;;;7.10;99.90;;;;;;10431276;28;20025;-61
2023/01/24 04:31:29;;;;;;;6.95;4.32;;;6.50;99.90;;;;;;10427432;28;20037;-63
2023/01/24 04:36:49;;;;;;;7.78;3.70;;;6.50;99.90;;;;;;10423274;28;20060;-61
2023/01/24 04:42:08;;;;;;;7.00;3.75;;;6.50;99.90;;;;;;10424194;28;20047;-61
2023/01/24 04:47:30;;;;;;;6.90;3.50;;;7.70;99.90;;;;;;10420786;28;20478;-60
2023/01/24 04:52:50;;;;;;;6.03;3.47;;;6.50;99.90;;;;;;10420365;28;20177;-62
2023/01/24 04:58:12;;;;;;;6.43;3.38;;;6.50;99.90;;;;;;10423479;28;20024;-61
2023/01/24 05:03:31;;;;;;;6.20;3.42;;;6.50;99.90;;;;;;10435694;28;20029;-61
2023/01/24 05:08:51;;;;;;;;;;;6.50;99.90;;;;;;10422377;28;20033;-62
2023/01/24 05:14:10;;;;;;;5.10;3.10;;;6.50;99.90;;;;;;10424125;28;19947;-62
2023/01/24 05:19:30;;;;;;;6.32;3.65;;;6.50;99.90;;;;;;10431430;28;20072;-63
2023/01/24 05:24:49;;;;;;;6.25;3.45;;;6.50;99.90;;;;;;10431825;28;20485;-61
2023/01/24 05:30:09;;;;;;;6.47;3.38;;;6.60;99.90;;;;;;10422112;28;20021;-61
2023/01/24 05:35:28;;;;;;;6.90;3.67;;;6.50;99.90;;;;;;10423035;28;20025;-64
2023/01/24 05:40:48;;;;;;;;;;;6.50;99.90;;;;;;10433289;28;20436;-61
2023/01/24 05:46:10;;;;;;;6.00;3.33;;;6.50;99.90;;;;;;10425923;28;19909;-62
2023/01/24 05:51:29;;;;;;;6.13;3.03;;;7.40;99.90;;;;;;10431803;28;20049;-64
2023/01/24 05:56:48;;;;;;;7.68;3.65;;;7.40;99.90;;;;;;10405870;28;20410;-63
2023/01/24 06:02:07;;;;;;;6.90;3.40;;;6.50;99.90;;;;;;10422549;28;20029;-63
2023/01/24 06:07:26;;;;;;;7.95;3.60;;;6.50;99.90;;;;;;10432438;28;20115;-61
2023/01/24 06:12:46;;;;;;;;;;;6.60;99.90;;;;;;10431335;28;20056;-61
2023/01/24 06:18:05;;;;;;;;;;;6.50;99.90;;;;;;10416242;28;19905;-64
2023/01/24 06:23:26;;;;;;;7.20;3.20;;;6.40;99.90;;;;;;10435949;28;19916;-62
2023/01/24 06:28:46;;;;;;;4.82;2.90;;;6.40;99.90;;;;;;10428569;28;20493;-64
2023/01/24 06:34:37;;;;;;;5.65;2.97;;;6.40;99.90;;;;;;10415722;28;20120;-61
2023/01/24 06:39:57;;;;;;;6.13;3.30;;;6.40;99.90;;;;;;10426401;28;20123;-64
2023/01/24 06:45:17;;;;;;;8.57;3.85;;;6.90;99.90;;;;;;10421871;28;20033;-61
2023/01/24 06:50:36;;;;;;;6.35;3.72;;;6.40;99.90;;;;;;10413047;28;20033;-63
2023/01/24 06:55:56;;;;;;;7.03;3.55;;;7.40;99.90;;;;;;10424928;28;20041;-62
2023/01/24 07:01:18;;;;;;;6.45;3.60;;;6.90;99.90;;;;;;10416888;28;20065;-61
2023/01/24 07:06:37;;;;;;;8.02;3.55;;;6.40;99.90;;;;;;10414310;28;20033;-59
2023/01/24 07:11:58;;;;;;;5.57;3.13;;;6.40;99.90;;;;;;10412384;28;20473;-62
2023/01/24 07:17:17;;;;;;;5.50;3.20;;;6.50;99.90;;;;;;10410928;28;20507;-61
2023/01/24 07:22:38;;;;;;;6.05;3.25;;;6.40;99.90;;;;;;10431224;28;20029;-60
2023/01/24 07:27:58;;;;;;;5.43;3.10;;;6.40;99.90;;;;;;10403035;28;20053;-61
2023/01/24 07:33:17;;;;;;;5.75;3.20;;;6.40;99.90;;;;;;10429758;28;20022;-61
2023/01/24 07:38:36;;;;;;;;;;;6.50;99.90;;;;;;10421767;28;20291;-62
2023/01/24 07:43:56;;;;;;;8.02;3.88;;;7.30;99.90;;;;;;10422918;28;19972;-62
2023/01/24 07:49:15;;;;;;;6.47;3.47;;;6.40;99.90;;;;;;10430839;28;20417;-62
2023/01/24 07:54:35;;;;;;;7.18;3.80;;;6.40;99.90;;;;;;10421818;28;20481;-62
2023/01/24 07:59:54;;;;;;;;;;;6.40;99.90;;;;;;10437744;28;20481;-62
2023/01/24 08:05:13;;;;;;;7.85;3.92;;;6.40;99.90;;;;;;10429733;28;19916;-63
2023/01/24 08:10:32;;;;;;;7.93;4.05;;;6.30;99.90;;;;;;10427721;28;20025;-63
2023/01/24 08:15:52;;;;;;;;;;;7.00;99.90;;;;;;10426437;28;20107;-63
2023/01/24 08:21:11;;;;;;;10.40;4.60;;;6.40;99.90;;;;;;10424593;28;20015;-63
2023/01/24 08:26:30;;;;;;;;;;;6.40;99.90;;;;;;10428221;28;20025;-63
2023/01/24 08:31:54;;;;;;;6.78;3.80;;;6.40;99.90;;;;;;10416607;28;20256;-62
2023/01/24 08:37:14;;;;;;;8.77;4.20;;;6.40;99.90;;;;;;10434428;28;20048;-64
2023/01/24 08:42:35;;;;;;;8.43;4.38;;;6.40;99.90;;;;;;10437361;28;20429;-62
2023/01/24 08:47:57;;;;;;;7.15;3.95;;;6.40;99.90;;;;;;10430339;28;20034;-62
2023/01/24 08:53:17;;;;;;;7.78;3.78;;;6.40;99.90;;;;;;10431166;28;20405;-62
2023/01/24 08:58:36;;;;;;;8.02;3.90;;;6.40;99.90;;;;;;10429390;28;20116;-63
2023/01/24 09:03:56;;;;;;;6.68;3.55;;;7.50;99.90;;;;;;10421448;28;20046;-63
2023/01/24 09:09:24;;;;;;;6.43;3.65;;;7.60;99.90;;;;;;10438831;28;20517;-63
2023/01/24 09:14:49;;;;;;;9.43;4.30;;;6.80;99.90;;;;;;10445511;28;20021;-64
2023/01/24 09:20:09;;;;;;;5.90;3.60;;;6.40;99.90;;;;;;10433179;28;20041;-63
2023/01/24 09:25:30;;;;;;;6.78;3.45;;;6.40;99.90;;;;;;10437977;28;20025;-62
2023/01/24 09:31:23;;;;;;;7.15;3.45;;;6.40;99.90;;;;;;10435321;28;20651;-62
2023/01/24 09:37:02;;;;;;;8.38;3.80;;;7.40;99.90;;;;;;10419209;28;20044;-64
2023/01/24 09:42:59;;;;;;;6.70;3.30;;;6.40;99.90;;;;;;10428308;28;20102;-62
2023/01/24 09:48:36;;;;;;;7.90;4.00;;;6.50;99.90;;;;;;10420569;28;20469;-62
2023/01/24 09:54:11;;;;;;;7.90;4.20;;;6.40;99.90;;;;;;10423110;28;20409;-62
2023/01/24 09:59:38;;;;;;;7.65;3.05;;;6.50;99.90;;;;;;10421023;28;20025;-64
2023/01/24 10:06:30;;;;;;;7.45;3.50;;;6.50;99.90;;;;;;10497687;22;20151;-62
2023/01/24 10:11:59;;;;;;;7.85;3.97;;;7.50;99.90;;;;;;9206407;28;20689692;-62
2023/01/24 10:17:24;;;;;;;8.75;4.05;;;6.50;99.90;;;;;;10382744;28;20033;-61
2023/01/24 10:22:48;;;;;;;6.03;3.58;;;6.50;99.90;;;;;;10382211;28;20067;-62
2023/01/24 10:28:28;;;;;;;6.88;3.45;;;7.40;99.90;;;;;;10387869;28;20060;-62
2023/01/24 10:33:48;;;;;;;7.25;3.30;;;7.70;99.90;;;;;;10379282;28;20017;-62
2023/01/24 10:39:32;;;;;;;7.50;3.70;;;7.30;99.90;;;;;;10435053;23;20127;-62
2023/01/24 10:45:57;;;;;;;5.93;3.25;;;6.50;99.90;;;;;;10353821;23;20136;-62
2023/01/24 10:52:41;;;;;;;;;;;;;;;;;;;;;
2023/01/24 11:04:56;;;;;;;5.85;3.03;;;6.50;99.90;;;;;;10349125;28;20132;-63
2023/01/24 11:22:40;;;;;;;6.55;3.70;;;5.50;99.90;;;;;;11723201;23;20085;-62
2023/01/24 11:28:31;;;;;;;8.70;4.05;;;6.50;99.90;;;;;;10244611;28;20477;-64
2023/01/24 11:34:16;;;;;;;6.25;3.45;;;6.50;99.90;;;;;;10386184;23;20062;-63
2023/01/24 11:40:28;;;;;;;8.63;4.07;;;6.50;99.90;;;;;;10264872;28;20068;-62
2023/01/24 11:46:13;;;;;;;7.30;4.18;;;6.50;99.90;;;;;;10273022;28;20109;-63
2023/01/24 11:51:57;;;;;;;7.32;3.65;;;6.50;99.90;;;;;;10267972;28;20455;-62
2023/01/24 11:57:55;;;;;;;8.68;4.28;;;6.50;99.90;;;;;;10331207;23;20043;-62
2023/01/24 12:03:47;;;;;;;8.07;3.88;;;6.50;99.90;;;;;;10323518;23;20047;-62
2023/01/24 12:09:31;;;;;;;9.35;4.22;;;6.50;99.90;;;;;;10252787;28;20113;-62
2023/01/24 12:15:38;;;;;;;7.20;4.07;;;6.50;99.90;;;;;;10429450;23;20050;-62
2023/01/24 12:21:40;;;;;;;7.43;4.18;;;6.50;99.90;;;;;;10239510;28;20035;-62
2023/01/24 12:27:27;;;;;;;6.90;3.70;;;6.30;99.90;;;;;;10172636;29;20036;-62
2023/01/24 12:33:05;;;;;;;8.07;3.72;;;6.50;99.90;;;;;;10197442;28;20031;-61
2023/01/24 12:39:05;;;;;;;7.07;4.00;;;6.50;99.90;;;;;;10238030;28;20039;-65
2023/01/24 12:45:04;;;;;;;6.30;3.65;;;6.60;99.90;;;;;;10344350;23;20046;-63
2023/01/24 12:51:08;;;;;;;7.28;3.83;;;6.70;99.90;;;;;;10267637;28;20031;-63
2023/01/24 12:57:01;;;;;;;7.32;4.00;;;6.50;99.90;;;;;;10268439;28;20030;-63
2023/01/24 13:03:06;;;;;;;8.00;3.90;;;6.40;99.90;;;;;;10263920;28;20391;-63
2023/01/24 13:08:47;;;;;;;7.30;4.00;;;6.50;99.90;;;;;;10274775;28;20030;-64
2023/01/24 13:14:27;;;;;;;7.60;3.78;;;6.60;99.90;;;;;;10273924;28;20031;-66
2023/01/24 13:20:26;;;;;;;7.35;4.43;;;6.50;99.90;;;;;;10274298;28;20392;-63
2023/01/24 13:26:24;;;;;;;10.32;4.90;;;6.50;99.90;;;;;;10263548;28;20050;-65
2023/01/24 13:31:58;;;;;;;9.70;5.63;;;6.50;99.90;;;;;;10420254;23;20046;-69
2023/01/24 13:37:51;;;;;;;12.20;5.80;;;6.30;99.90;;;;;;10304067;28;20034;-65
2023/01/24 13:43:48;;;;;;;9.95;5.82;;;6.10;99.90;;;;;;10309780;28;20399;-65
2023/01/24 13:50:00;;;;;;;10.65;5.78;;;6.20;99.90;;;;;;10310191;28;20060;-65
2023/01/24 13:55:23;;;;;;;15.10;6.57;;;6.10;99.90;;;;;;10308139;28;20027;-64
2023/01/24 14:11:05;;;;;;;10.80;6.15;;;6.40;99.90;;;;;;11470410;23;20055;-64
2023/01/24 14:22:36;;;;;;;11.15;5.75;;;5.60;99.90;;;;;;10281596;23;20137;-64
2023/01/24 14:29:02;;;;;;;8.57;5.50;;;6.40;99.90;;;;;;10304320;23;20044;-65
2023/01/24 14:35:35;;;;;;;9.70;5.10;;;6.40;99.90;;;;;;10296220;28;20035;-64
2023/01/24 14:41:44;;;;;;;9.50;5.22;;;6.40;99.90;;;;;;10227264;28;20039;-65
2023/01/24 15:00:30;;;;;;;7.88;5.07;;;6.40;99.90;;;;;;10239344;28;20031;-65
2023/01/24 15:06:21;;;;;;;9.32;5.13;;;7.50;99.90;;;;;;10410965;23;20051;-64
2023/01/24 15:12:25;;;;;;;8.23;5.05;;;6.40;99.90;;;;;;10244432;28;20015;-64
2023/01/24 15:18:25;;;;;;;10.13;4.68;;;6.40;99.90;;;;;;10254776;28;20625;-65
2023/01/24 15:24:20;;;;;;;9.82;5.28;;;6.40;99.90;;;;;;10367232;23;20469;-64
2023/01/24 15:29:44;;;;;;;10.10;5.22;;;6.40;99.90;;;;;;10242089;28;20417;-66
2023/01/24 15:35:44;;;;;;;12.80;5.45;;;6.40;99.90;;;;;;10252491;28;20043;-64
2023/01/24 15:53:27;;;;;;;11.35;5.45;;;7.30;99.90;;;;;;10254727;28;20039;-64
2023/01/24 15:58:54;;;;;;;10.35;5.15;;;6.30;99.90;;;;;;10249377;28;20508;-64
2023/01/24 16:04:36;;;;;;;9.20;5.10;;;6.40;99.90;;;;;;10248648;28;20259;-63
2023/01/24 16:09:55;;;;;;;8.95;5.15;;;6.30;99.90;;;;;;10333840;23;20042;-66
2023/01/24 16:26:19;;;;;;;13.05;6.55;;;6.40;99.90;;;;;;11294783;23;20050;-67
2023/01/24 16:38:24;;;;;;;15.97;8.17;;;6.20;99.90;;;;;;10194489;29;20063;-66
2023/01/24 16:44:19;;;;;;;16.70;9.00;;;5.50;99.90;;;;;;10224890;28;20047;-66
2023/01/24 16:49:38;;;;;;;19.42;9.45;;;6.10;99.90;;;;;;10220067;29;20433;-65
2023/01/24 17:00:21;;;;;;;17.02;9.15;;;6.10;99.90;;;;;;10375160;23;20130;-64
2023/01/24 17:06:00;;;;;;;18.13;10.02;;;5.60;99.90;;;;;;10329882;23;20133;-64
2023/01/24 17:11:54;;;;;;;16.70;8.85;;;6.10;99.90;;;;;;10312792;28;20113;-64
2023/01/24 17:17:18;;;;;;;17.23;9.02;;;6.10;99.90;;;;;;10312385;28;20387;-64
2023/01/24 17:38:36;;;;;;;18.63;10.32;;;6.20;99.90;;;;;;10714125;23;20057;-64
2023/01/24 17:50:22;;;;;;;19.83;10.68;;;6.10;99.90;;;;;;10152719;29;20036;-63
2023/01/24 18:01:02;;;;;;;20.23;10.55;;;5.70;99.90;;;;;;10377939;23;20058;-63
2023/01/24 18:06:32;;;;;;;20.75;10.52;;;6.10;99.90;;;;;;10320780;28;20034;-65
2023/01/24 18:12:18;;;;;;;21.75;11.60;;;7.30;99.90;;;;;;10318411;28;20477;-65
2023/01/24 18:18:07;;;;;;;20.80;10.88;;;6.10;99.90;;;;;;10306371;28;20258;-65
2023/01/24 18:23:27;;;;;;;19.63;10.50;;;6.60;99.90;;;;;;10308538;28;20038;-64
2023/01/24 18:34:11;;;;;;;21.45;10.77;;;5.50;99.90;;;;;;10256520;23;20383;-64
2023/01/24 18:49:42;;;;;;;21.02;10.23;;;6.10;99.90;;;;;;11750029;23;20306;-64
2023/01/24 19:05:41;;;;;;;19.17;10.23;;;6.20;99.90;;;;;;10277789;23;20431;-64
2023/01/24 19:11:06;;;;;;;23.13;10.67;;;6.80;99.90;;;;;;10236421;28;20039;-64
2023/01/24 19:16:26;;;;;;;21.50;11.00;;;6.10;99.90;;;;;;10312784;23;20378;-63
2023/01/24 19:21:46;;;;;;;;;;;6.10;99.90;;;;;;10273328;28;20034;-64
2023/01/24 19:27:05;;;;;;;17.23;9.57;;;6.10;99.90;;;;;;10459352;23;19985;-64
2023/01/24 19:32:56;;;;;;;19.35;10.77;;;6.10;99.90;;;;;;10250560;28;20019;-64
2023/01/24 19:38:16;;;;;;;19.45;9.77;;;6.20;99.90;;;;;;10251790;28;20039;-64
2023/01/24 19:43:36;;;;;;;18.23;9.80;;;6.10;99.90;;;;;;10244302;28;20039;-63
2023/01/24 19:49:02;;;;;;;19.27;9.60;;;6.10;99.90;;;;;;10244357;28;20496;-65
2023/01/24 19:54:24;;;;;;;23.00;11.07;;;6.10;99.90;;;;;;10515230;23;20529;-64
2023/01/24 19:59:43;;;;;;;19.08;10.25;;;6.10;99.90;;;;;;10315162;28;20450;-64
2023/01/24 20:11:36;;;;;;;18.30;10.40;;;6.10;99.90;;;;;;10308038;28;20066;-64
2023/01/24 20:16:56;;;;;;;20.15;10.65;;;6.10;99.90;;;;;;10434808;23;20514;-63
2023/01/24 20:34:20;;;;;;;18.98;10.05;;;6.00;99.90;;;;;;10321157;23;20055;-64
2023/01/24 20:40:12;;;;;;;22.23;11.00;;;6.00;99.90;;;;;;10306431;28;20026;-64
2023/01/24 20:45:34;;;;;;;19.60;11.02;;;6.10;99.90;;;;;;10394625;23;20146;-64
2023/01/24 20:52:13;;;;;;;20.30;10.05;;;6.00;99.90;;;;;;10254099;28;20450;-64
2023/01/24 20:57:01;;;;;;;23.33;10.50;;;6.00;99.90;;;;;;10244347;28;20130;-64
2023/01/24 21:03:49;;;;;;;19.50;9.90;;;6.10;99.90;;;;;;10372838;23;20058;-64
2023/01/24 21:15:22;;;;;;;19.27;10.30;;;6.00;99.90;;;;;;10233432;28;20023;-64
2023/01/24 21:20:49;;;;;;;17.30;9.52;;;6.00;99.90;;;;;;10437819;23;20035;-63
2023/01/24 21:27:07;;;;;;;19.98;10.35;;;6.00;99.90;;;;;;10249669;28;20051;-64
2023/01/24 21:33:08;;;;;;;19.95;10.15;;;6.00;99.90;;;;;;10135157;29;20528;-64
2023/01/24 21:39:02;;;;;;;19.15;10.93;;;6.00;99.90;;;;;;10149747;29;20024;-64
2023/01/24 21:44:36;;;;;;;19.83;10.40;;;6.00;99.90;;;;;;10362344;23;20063;-64
2023/01/24 21:50:44;;;;;;;21.00;10.75;;;6.00;99.90;;;;;;10239038;28;20392;-64
2023/01/24 22:05:53;;;;;;;20.13;10.45;;;6.10;99.90;;;;;;10522293;27;20427;-75
2023/01/24 22:11:12;;;;;;;20.10;9.32;;;6.10;99.90;;;;;;10488822;28;20041;-73
2023/01/24 22:16:32;;;;;;;18.13;9.13;;;6.10;99.90;;;;;;10467940;22;20406;-60
2023/01/24 22:22:12;;;;;;;19.70;10.07;;;6.10;99.90;;;;;;10313325;28;20269;-61
2023/01/24 22:27:31;;;;;;;21.00;10.55;;;6.00;99.90;;;;;;10282812;28;20043;-60
2023/01/24 22:32:54;;;;;;;18.73;9.63;;;6.00;99.90;;;;;;10292686;28;20039;-60
2023/01/24 22:38:13;;;;;;;19.48;9.98;;;6.00;99.90;;;;;;10288185;28;20030;-60
2023/01/24 22:43:34;;;;;;;;;;;6.00;99.90;;;;;;10292846;28;20050;-61
2023/01/24 22:48:53;;;;;;;18.40;9.75;;;5.90;99.90;;;;;;10292837;28;19984;-61
2023/01/24 22:54:12;;;;;;;;;;;5.90;99.90;;;;;;10296646;28;20038;-59
2023/01/24 22:59:31;;;;;;;19.95;9.55;;;5.90;99.90;;;;;;10299048;28;19910;-60
2023/01/24 23:04:50;;;;;;;22.35;10.50;;;5.90;99.90;;;;;;10293837;28;20030;-60
2023/01/24 23:10:10;;;;;;;19.30;10.52;;;5.90;99.90;;;;;;10301638;28;20018;-60
2023/01/24 23:26:45;;;;;;;21.48;10.48;;;5.90;99.90;;;;;;10279790;28;20038;-60
2023/01/24 23:32:24;;;;;;;19.77;10.32;;;5.90;99.90;;;;;;10270638;28;20031;-60
2023/01/24 23:37:43;;;;;;;;;;;5.90;99.90;;;;;;10281100;28;20027;-60
2023/01/24 23:43:02;;;;;;;18.83;9.68;;;5.90;99.90;;;;;;10271786;28;19914;-60
2023/01/24 23:48:21;;;;;;;19.75;10.20;;;5.90;99.90;;;;;;10274429;28;20511;-61
2023/01/24 23:53:41;;;;;;;19.63;9.77;;;6.00;99.90;;;;;;10270029;28;20026;-60
2023/01/24 23:59:00;;;;;;;25.90;12.38;;;5.90;99.90;;;;;;10271929;28;20476;-60
